Time;durP1;ratioP1;P1;durP2;ratioP2;P2;SDS_P1;SDS_P2;PMS_P1;PMS_P2;Temp;Humidity;BMP_temperature;BMP_pressure;BME280_temperature;BME280_humidity;BME280_pressure;Samples;Min_cycle;Max_cycle;Signal;HPM_P1;HPM_P2
2022/09/15 00:01:59;;;;;;;13.57;12.87;;;19.80;90.50;;;;;;5070289;28;20473;-70
2022/09/15 00:04:26;;;;;;;13.70;12.80;;;19.70;90.50;;;;;;5064455;28;20458;-70
2022/09/15 00:06:53;;;;;;;13.90;13.20;;;19.80;90.50;;;;;;5065168;28;21166;-70
2022/09/15 00:09:19;;;;;;;14.20;13.50;;;19.80;90.40;;;;;;5065940;28;20473;-70
2022/09/15 00:11:47;;;;;;;14.13;13.30;;;19.80;90.20;;;;;;5066088;28;20992;-70
2022/09/15 00:14:14;;;;;;;14.80;13.67;;;19.80;90.10;;;;;;5065540;28;20492;-70
2022/09/15 00:16:41;;;;;;;14.40;13.53;;;19.80;90.00;;;;;;5066968;28;20450;-70
2022/09/15 00:19:09;;;;;;;14.67;13.77;;;19.80;90.00;;;;;;5063510;28;20473;-70
2022/09/15 00:21:39;;;;;;;13.87;13.17;;;19.90;89.70;;;;;;5065347;28;20458;-70
2022/09/15 00:24:06;;;;;;;13.87;13.07;;;19.80;90.20;;;;;;5066468;28;20469;-70
2022/09/15 00:26:33;;;;;;;13.90;13.10;;;19.80;90.40;;;;;;5066790;28;20464;-70
2022/09/15 00:29:00;;;;;;;13.40;12.57;;;19.70;90.70;;;;;;5064740;28;20451;-70
2022/09/15 00:31:29;;;;;;;13.13;12.43;;;19.70;90.60;;;;;;5065241;28;20480;-70
2022/09/15 00:33:58;;;;;;;13.60;12.60;;;19.70;90.40;;;;;;5066228;28;20481;-70
2022/09/15 00:36:27;;;;;;;13.93;13.23;;;19.80;90.10;;;;;;5069822;28;20458;-71
2022/09/15 00:38:54;;;;;;;13.17;12.50;;;19.70;89.90;;;;;;5067212;28;20855;-70
2022/09/15 00:41:22;;;;;;;14.37;13.57;;;19.70;89.60;;;;;;5069334;28;20490;-70
2022/09/15 00:43:52;;;;;;;14.33;13.63;;;19.80;89.10;;;;;;5070156;28;20474;-70
2022/09/15 00:46:22;;;;;;;14.67;13.83;;;19.80;88.40;;;;;;5075742;28;20467;-70
2022/09/15 00:48:54;;;;;;;13.17;12.57;;;19.80;88.00;;;;;;5070385;28;20453;-70
2022/09/15 00:51:29;;;;;;;14.13;13.43;;;19.90;87.70;;;;;;5068264;28;20474;-72
2022/09/15 00:53:57;;;;;;;14.73;13.90;;;20.00;87.10;;;;;;5067003;28;20475;-72
2022/09/15 00:56:25;;;;;;;14.93;14.30;;;19.90;86.90;;;;;;5068226;28;20461;-73
2022/09/15 00:59:00;;;;;;;14.57;13.87;;;19.90;87.00;;;;;;5069951;28;20481;-72
2022/09/15 01:01:28;;;;;;;13.70;13.10;;;20.00;86.90;;;;;;5069151;28;20496;-72
2022/09/15 01:03:55;;;;;;;15.20;14.47;;;20.00;86.70;;;;;;5071200;28;20477;-72
2022/09/15 01:06:29;;;;;;;15.10;14.40;;;20.00;86.60;;;;;;5070647;28;20462;-72
2022/09/15 01:09:02;;;;;;;15.40;14.70;;;20.00;86.70;;;;;;5071000;28;20516;-72
2022/09/15 01:11:30;;;;;;;14.20;13.60;;;20.00;86.50;;;;;;5067138;28;20484;-72
2022/09/15 01:13:57;;;;;;;14.83;14.13;;;20.10;86.40;;;;;;5070762;28;20482;-73
2022/09/15 01:16:32;;;;;;;15.23;14.33;;;20.00;86.70;;;;;;5065560;28;20852;-72
2022/09/15 01:19:15;;;;;;;14.70;14.00;;;19.90;87.10;;;;;;5068001;28;20478;-73
2022/09/15 01:21:47;;;;;;;14.73;13.87;;;19.90;87.30;;;;;;5067226;28;20485;-72
2022/09/15 01:24:41;;;;;;;14.20;13.50;;;19.90;87.20;;;;;;5070707;28;20454;-73
2022/09/15 01:27:31;;;;;;;14.10;13.40;;;19.90;87.30;;;;;;5065843;28;21085;-72
2022/09/15 01:30:16;;;;;;;15.50;14.87;;;19.90;87.30;;;;;;5060470;28;20451;-72
2022/09/15 01:33:04;;;;;;;14.50;13.70;;;19.90;87.30;;;;;;5068591;28;20491;-70
2022/09/15 01:35:39;;;;;;;13.93;13.20;;;19.80;87.50;;;;;;5064595;28;20468;-71
2022/09/15 01:38:10;;;;;;;14.67;13.97;;;19.80;87.80;;;;;;5068223;28;20451;-70
2022/09/15 01:40:42;;;;;;;14.27;13.67;;;19.70;88.10;;;;;;5068409;28;20484;-71
2022/09/15 01:43:11;;;;;;;14.63;13.83;;;19.70;87.90;;;;;;5070761;28;20536;-70
2022/09/15 01:45:42;;;;;;;14.70;13.90;;;19.70;87.80;;;;;;5063677;28;20468;-70
2022/09/15 01:48:09;;;;;;;14.27;13.43;;;19.70;87.70;;;;;;5072263;28;20479;-71
2022/09/15 01:50:41;;;;;;;13.70;13.00;;;19.70;87.70;;;;;;5067308;28;20546;-70
2022/09/15 01:53:12;;;;;;;14.80;14.10;;;19.70;87.30;;;;;;5069901;28;20497;-70
2022/09/15 01:55:44;;;;;;;15.33;14.37;;;19.70;87.20;;;;;;5065991;28;20468;-72
2022/09/15 01:58:11;;;;;;;15.43;14.50;;;19.70;87.20;;;;;;5068710;28;20957;-72
2022/09/15 02:00:43;;;;;;;14.50;13.57;;;19.70;87.30;;;;;;5068039;28;20475;-72
2022/09/15 02:03:18;;;;;;;13.80;13.17;;;19.70;87.10;;;;;;5072054;28;20483;-72
2022/09/15 02:05:51;;;;;;;14.30;13.70;;;19.70;87.10;;;;;;5070022;28;20462;-72
2022/09/15 02:08:27;;;;;;;15.53;14.73;;;19.70;86.80;;;;;;5067937;28;20468;-72
2022/09/15 02:11:03;;;;;;;16.27;15.57;;;19.60;86.90;;;;;;5066917;28;20539;-74
2022/09/15 02:13:36;;;;;;;15.80;15.10;;;19.60;87.10;;;;;;5070194;28;20482;-72
2022/09/15 02:16:12;;;;;;;17.20;16.20;;;19.70;86.70;;;;;;5066672;28;20456;-72
2022/09/15 02:18:46;;;;;;;16.77;15.87;;;19.60;86.50;;;;;;5068150;28;20457;-72
2022/09/15 02:21:17;;;;;;;16.40;15.47;;;19.70;86.20;;;;;;5066091;28;20469;-73
2022/09/15 02:23:51;;;;;;;17.20;16.10;;;19.70;86.30;;;;;;5067541;28;20488;-72
2022/09/15 02:26:23;;;;;;;19.00;17.80;;;19.70;86.30;;;;;;5058223;28;20527;-72
2022/09/15 02:28:52;;;;;;;15.50;14.70;;;19.80;85.80;;;;;;5068292;28;21074;-72
2022/09/15 02:31:23;;;;;;;16.37;15.53;;;19.70;85.70;;;;;;5065329;28;20453;-73
2022/09/15 02:33:59;;;;;;;16.57;15.40;;;19.70;85.60;;;;;;5065647;28;20470;-72
2022/09/15 02:36:27;;;;;;;17.40;16.60;;;19.70;85.70;;;;;;5065853;28;20874;-73
2022/09/15 02:38:59;;;;;;;47.93;45.93;;;19.70;85.70;;;;;;5070003;28;20497;-72
2022/09/15 02:41:27;;;;;;;30.27;28.97;;;19.70;85.70;;;;;;5066308;28;20459;-72
2022/09/15 02:43:54;;;;;;;19.03;18.27;;;19.70;85.90;;;;;;5069199;28;20981;-72
2022/09/15 02:46:23;;;;;;;16.47;15.67;;;19.70;85.70;;;;;;5066263;28;20465;-72
2022/09/15 02:48:50;;;;;;;18.63;17.83;;;19.70;85.90;;;;;;5069948;28;20509;-72
2022/09/15 02:51:18;;;;;;;17.00;16.30;;;19.70;85.90;;;;;;5067131;28;20470;-72
2022/09/15 02:53:45;;;;;;;25.93;24.87;;;19.60;86.00;;;;;;5066704;28;20487;-72
2022/09/15 02:56:12;;;;;;;18.10;17.30;;;19.70;85.90;;;;;;5068952;28;20467;-73
2022/09/15 02:58:39;;;;;;;18.07;17.23;;;19.60;86.20;;;;;;5069009;28;20462;-72
2022/09/15 03:01:09;;;;;;;19.70;18.90;;;19.60;86.30;;;;;;5064332;28;20450;-72
2022/09/15 03:03:38;;;;;;;19.43;18.47;;;19.50;86.60;;;;;;5066947;28;20535;-71
2022/09/15 03:06:16;;;;;;;26.60;25.43;;;19.50;86.40;;;;;;5066053;28;20459;-73
2022/09/15 03:08:44;;;;;;;15.97;15.07;;;19.50;86.50;;;;;;5063813;28;20462;-72
2022/09/15 03:11:11;;;;;;;41.30;39.50;;;19.50;86.50;;;;;;5063159;28;21045;-73
2022/09/15 03:13:39;;;;;;;15.73;15.13;;;19.50;86.60;;;;;;5063845;28;20472;-73
2022/09/15 03:16:10;;;;;;;17.70;16.93;;;19.50;86.60;;;;;;5065474;28;20462;-72
2022/09/15 03:18:39;;;;;;;28.90;27.50;;;19.40;86.70;;;;;;5063070;28;20823;-72
2022/09/15 03:21:08;;;;;;;16.93;16.20;;;19.50;86.70;;;;;;5062787;28;20484;-73
2022/09/15 03:23:36;;;;;;;27.27;26.07;;;19.50;86.70;;;;;;5067746;28;20844;-72
2022/09/15 03:26:04;;;;;;;14.83;13.87;;;19.40;86.80;;;;;;5065176;28;20814;-75
2022/09/15 03:28:31;;;;;;;15.60;14.90;;;19.50;86.70;;;;;;5065356;28;20456;-73
2022/09/15 03:30:58;;;;;;;25.93;24.70;;;19.50;86.70;;;;;;5064421;28;20451;-73
2022/09/15 03:33:25;;;;;;;24.63;23.33;;;19.50;86.60;;;;;;5066786;28;20482;-72
2022/09/15 03:35:54;;;;;;;14.83;14.13;;;19.40;86.70;;;;;;5062873;28;20450;-72
2022/09/15 03:38:21;;;;;;;15.03;14.23;;;19.40;86.90;;;;;;5068496;28;21211;-72
2022/09/15 03:40:57;;;;;;;15.17;14.50;;;19.40;86.90;;;;;;5065071;28;20484;-72
2022/09/15 03:43:23;;;;;;;25.13;23.97;;;19.30;87.00;;;;;;5066732;28;20491;-72
2022/09/15 03:45:50;;;;;;;17.13;16.40;;;19.30;87.00;;;;;;5065014;28;20456;-72
2022/09/15 03:48:17;;;;;;;25.00;23.80;;;19.40;87.00;;;;;;5068394;28;20463;-73
2022/09/15 03:50:45;;;;;;;14.40;13.60;;;19.30;87.30;;;;;;5063737;28;20456;-72
2022/09/15 03:53:13;;;;;;;28.80;27.60;;;19.30;87.20;;;;;;5065416;28;20482;-71
2022/09/15 03:55:40;;;;;;;15.47;14.77;;;19.30;87.10;;;;;;5065879;28;22874;-72
2022/09/15 03:58:07;;;;;;;14.03;13.33;;;19.30;87.10;;;;;;5071856;28;20455;-71
2022/09/15 04:00:34;;;;;;;27.13;25.93;;;19.30;87.10;;;;;;5066475;28;20479;-72
2022/09/15 04:03:00;;;;;;;20.90;19.93;;;19.30;87.30;;;;;;5065106;28;20494;-72
2022/09/15 04:05:27;;;;;;;15.60;14.90;;;19.30;87.30;;;;;;5065982;28;20819;-72
2022/09/15 04:07:54;;;;;;;28.43;27.13;;;19.20;87.40;;;;;;5066985;28;20470;-71
2022/09/15 04:10:23;;;;;;;14.37;13.47;;;19.30;87.30;;;;;;5070365;28;20446;-74
2022/09/15 04:12:51;;;;;;;18.77;17.87;;;19.30;87.20;;;;;;5067638;28;20556;-73
2022/09/15 04:15:18;;;;;;;27.40;26.30;;;19.30;87.10;;;;;;5069266;28;20489;-72
2022/09/15 04:17:45;;;;;;;14.00;13.20;;;19.30;87.20;;;;;;5071558;28;20462;-72
2022/09/15 04:20:12;;;;;;;31.37;29.97;;;19.30;87.30;;;;;;5070983;28;20470;-71
2022/09/15 04:22:38;;;;;;;12.77;12.17;;;19.30;87.10;;;;;;5067254;28;20571;-71
2022/09/15 04:25:07;;;;;;;20.13;19.23;;;19.30;87.30;;;;;;5070949;28;20459;-72
2022/09/15 04:27:37;;;;;;;12.40;11.83;;;19.30;87.20;;;;;;5072329;28;20794;-72
2022/09/15 04:30:05;;;;;;;14.50;13.13;;;19.30;87.30;;;;;;5061294;28;20893;-72
2022/09/15 04:32:32;;;;;;;15.63;14.93;;;19.30;87.30;;;;;;5064830;28;20560;-71
2022/09/15 04:34:58;;;;;;;19.73;18.87;;;19.30;87.30;;;;;;5062148;28;20562;-71
2022/09/15 04:37:25;;;;;;;12.93;11.93;;;19.30;87.30;;;;;;5069896;28;20460;-72
2022/09/15 04:39:52;;;;;;;24.10;23.10;;;19.30;87.10;;;;;;5071280;28;20484;-71
2022/09/15 04:42:20;;;;;;;15.23;14.30;;;19.20;87.20;;;;;;5062826;28;20479;-71
2022/09/15 04:44:48;;;;;;;24.97;23.63;;;19.20;87.20;;;;;;5065857;28;21066;-72
2022/09/15 04:47:16;;;;;;;27.37;26.23;;;19.20;87.40;;;;;;5068495;28;20586;-73
2022/09/15 04:49:43;;;;;;;13.90;13.30;;;19.20;87.40;;;;;;5071442;28;20455;-72
2022/09/15 04:52:09;;;;;;;14.57;13.97;;;19.20;87.10;;;;;;5070378;28;20478;-71
2022/09/15 04:54:36;;;;;;;21.47;20.47;;;19.20;87.10;;;;;;5065295;28;20456;-73
2022/09/15 04:57:04;;;;;;;19.77;18.97;;;19.20;86.90;;;;;;5065638;28;20450;-71
2022/09/15 04:59:31;;;;;;;25.80;24.60;;;19.20;86.70;;;;;;5070745;28;20458;-72
2022/09/15 05:01:59;;;;;;;20.60;19.63;;;19.20;86.60;;;;;;5067835;28;20585;-71
2022/09/15 05:04:26;;;;;;;29.77;28.57;;;19.20;86.60;;;;;;5066277;28;20458;-72
2022/09/15 05:06:53;;;;;;;16.50;15.07;;;19.20;86.60;;;;;;5069021;28;20454;-73
2022/09/15 05:09:19;;;;;;;17.83;17.00;;;19.20;86.50;;;;;;5060765;28;20466;-71
2022/09/15 05:11:46;;;;;;;28.83;27.57;;;19.20;86.60;;;;;;5065667;28;20504;-72
2022/09/15 05:14:13;;;;;;;16.90;16.10;;;19.20;86.60;;;;;;5064750;28;20461;-72
2022/09/15 05:16:41;;;;;;;25.30;24.20;;;19.30;86.30;;;;;;5063729;28;20208;-74
2022/09/15 05:19:11;;;;;;;31.47;30.07;;;19.20;86.30;;;;;;5066459;28;20811;-73
2022/09/15 05:21:38;;;;;;;13.63;13.03;;;19.20;86.60;;;;;;5071070;28;20501;-72
2022/09/15 05:24:05;;;;;;;13.03;12.33;;;19.30;86.80;;;;;;5068135;28;20455;-73
2022/09/15 05:26:32;;;;;;;20.50;19.60;;;19.30;86.80;;;;;;5069208;28;20470;-74
2022/09/15 05:28:59;;;;;;;21.10;20.00;;;19.30;86.70;;;;;;5066056;28;20455;-73
2022/09/15 05:31:29;;;;;;;19.93;19.03;;;19.30;86.60;;;;;;5067893;28;20458;-77
2022/09/15 05:33:56;;;;;;;14.33;13.63;;;19.40;86.70;;;;;;5070070;28;20467;-72
2022/09/15 05:36:25;;;;;;;35.23;33.57;;;19.40;86.60;;;;;;5068144;28;20469;-74
2022/09/15 05:38:52;;;;;;;25.20;24.10;;;19.40;86.50;;;;;;5068466;28;20460;-72
2022/09/15 05:41:20;;;;;;;19.03;18.13;;;19.50;86.30;;;;;;5068260;28;20868;-72
2022/09/15 05:43:49;;;;;;;26.43;25.40;;;19.50;86.50;;;;;;5068441;28;20471;-71
2022/09/15 05:46:18;;;;;;;19.70;18.40;;;19.40;86.30;;;;;;5067934;28;20865;-73
2022/09/15 05:48:45;;;;;;;30.87;29.47;;;19.50;86.30;;;;;;5069456;28;20890;-74
2022/09/15 05:51:13;;;;;;;14.50;13.77;;;19.60;85.80;;;;;;5067129;28;20545;-72
2022/09/15 05:53:42;;;;;;;16.53;15.83;;;19.60;85.60;;;;;;5066634;28;20468;-72
2022/09/15 05:56:11;;;;;;;14.80;13.83;;;19.70;85.20;;;;;;5067829;28;20474;-72
2022/09/15 05:58:40;;;;;;;15.33;14.60;;;19.60;85.30;;;;;;5063689;28;20457;-71
2022/09/15 06:01:10;;;;;;;31.27;30.00;;;19.70;85.10;;;;;;5064266;28;20474;-73
2022/09/15 06:03:37;;;;;;;17.70;16.90;;;19.70;85.00;;;;;;5067032;28;20495;-76
2022/09/15 06:06:06;;;;;;;25.67;24.60;;;19.80;84.60;;;;;;5059455;28;20456;-73
2022/09/15 06:08:34;;;;;;;31.00;29.60;;;19.80;84.50;;;;;;5063301;28;20469;-73
2022/09/15 06:11:05;;;;;;;19.10;18.30;;;19.90;84.00;;;;;;5067192;28;20462;-71
2022/09/15 06:13:32;;;;;;;30.30;29.00;;;19.90;84.10;;;;;;5062623;28;20484;-71
2022/09/15 06:16:07;;;;;;;16.07;15.37;;;20.00;84.00;;;;;;5067191;28;20459;-73
2022/09/15 06:18:36;;;;;;;18.30;17.40;;;20.00;83.70;;;;;;5066173;28;20463;-74
2022/09/15 06:21:07;;;;;;;20.97;19.77;;;20.10;83.70;;;;;;5065928;28;20481;-72
2022/09/15 06:23:35;;;;;;;22.33;21.43;;;20.10;83.50;;;;;;5067358;28;20509;-72
2022/09/15 06:26:11;;;;;;;26.73;25.60;;;20.10;83.30;;;;;;5064514;28;20460;-73
2022/09/15 06:28:38;;;;;;;23.60;22.57;;;20.10;83.30;;;;;;5066213;28;20461;-73
2022/09/15 06:31:11;;;;;;;18.67;17.93;;;20.20;83.10;;;;;;5060145;28;20443;-73
2022/09/15 06:33:41;;;;;;;30.07;28.90;;;20.20;83.10;;;;;;5059138;28;21111;-72
2022/09/15 06:36:09;;;;;;;21.97;21.00;;;20.20;83.20;;;;;;5070311;28;21016;-75
2022/09/15 06:38:36;;;;;;;20.97;19.97;;;20.10;83.40;;;;;;5066527;28;20456;-74
2022/09/15 06:41:03;;;;;;;18.50;17.60;;;20.10;84.00;;;;;;5060286;28;20596;-73
2022/09/15 06:43:32;;;;;;;33.33;31.70;;;20.00;85.70;;;;;;5065191;28;20484;-74
2022/09/15 06:46:04;;;;;;;26.83;25.73;;;20.00;86.00;;;;;;5060655;28;20469;-72
2022/09/15 06:48:32;;;;;;;16.60;15.90;;;20.00;86.00;;;;;;5061160;28;20464;-72
2022/09/15 06:50:59;;;;;;;19.07;18.23;;;20.00;86.10;;;;;;5071112;28;20464;-72
2022/09/15 06:53:27;;;;;;;20.10;19.20;;;20.00;86.20;;;;;;5064967;28;20505;-72
2022/09/15 06:55:54;;;;;;;22.93;21.87;;;19.90;86.50;;;;;;5072416;28;20470;-74
2022/09/15 06:58:22;;;;;;;13.50;12.93;;;19.90;86.80;;;;;;5071490;28;20949;-72
2022/09/15 07:00:50;;;;;;;16.43;15.63;;;19.80;87.20;;;;;;5077622;28;20586;-73
2022/09/15 07:03:17;;;;;;;21.53;20.63;;;19.80;87.60;;;;;;5068662;28;20483;-73
2022/09/15 07:05:45;;;;;;;19.23;18.37;;;19.70;88.00;;;;;;5076455;28;20461;-72
2022/09/15 07:08:12;;;;;;;13.93;13.23;;;19.60;88.50;;;;;;5067556;28;20602;-79
2022/09/15 07:10:38;;;;;;;13.30;12.70;;;19.50;89.10;;;;;;5065907;28;20508;-72
2022/09/15 07:13:05;;;;;;;14.53;13.83;;;19.50;89.30;;;;;;5072039;28;20512;-76
2022/09/15 07:15:32;;;;;;;26.43;25.27;;;19.50;89.70;;;;;;5063318;28;20918;-73
2022/09/15 07:18:00;;;;;;;27.70;26.40;;;19.50;90.00;;;;;;5062557;28;20488;-73
2022/09/15 07:20:27;;;;;;;13.00;12.47;;;19.40;90.10;;;;;;5057960;28;20986;-73
2022/09/15 07:22:54;;;;;;;15.50;14.70;;;19.40;90.50;;;;;;5067349;28;20512;-74
2022/09/15 07:25:21;;;;;;;13.50;12.80;;;19.40;90.60;;;;;;5064271;28;20463;-74
2022/09/15 07:27:48;;;;;;;12.37;11.87;;;19.40;90.60;;;;;;5062643;28;20960;-74
2022/09/15 07:30:15;;;;;;;22.40;21.20;;;19.50;90.40;;;;;;5072444;28;20474;-72
2022/09/15 07:32:42;;;;;;;20.63;19.73;;;19.60;90.30;;;;;;5069953;28;20489;-74
2022/09/15 07:35:11;;;;;;;16.00;15.00;;;19.60;89.90;;;;;;5066418;28;20523;-72
2022/09/15 07:37:38;;;;;;;16.67;15.87;;;19.70;89.80;;;;;;5065636;28;20465;-75
2022/09/15 07:40:06;;;;;;;18.57;17.67;;;19.80;89.80;;;;;;5059509;28;20458;-72
2022/09/15 07:42:32;;;;;;;26.17;25.17;;;19.80;89.80;;;;;;5064963;28;20500;-73
2022/09/15 07:44:59;;;;;;;13.57;12.97;;;19.80;89.50;;;;;;5069960;28;20458;-77
2022/09/15 07:47:26;;;;;;;20.60;19.13;;;19.80;89.20;;;;;;5078805;28;20457;-72
2022/09/15 07:49:53;;;;;;;26.40;25.40;;;19.90;89.30;;;;;;5071037;28;20966;-74
2022/09/15 07:52:21;;;;;;;14.80;14.13;;;19.90;89.10;;;;;;5070196;28;20496;-73
2022/09/15 07:54:48;;;;;;;21.97;20.80;;;19.90;89.50;;;;;;5069213;28;20555;-73
2022/09/15 07:57:15;;;;;;;19.60;18.80;;;19.90;89.30;;;;;;5072027;28;20466;-72
2022/09/15 07:59:42;;;;;;;13.47;12.67;;;19.90;89.00;;;;;;5071441;28;20472;-74
2022/09/15 08:02:16;;;;;;;18.73;17.63;;;19.80;89.40;;;;;;5064498;28;20760;-72
2022/09/15 08:04:42;;;;;;;19.57;18.47;;;19.80;89.90;;;;;;5068039;28;20519;-72
2022/09/15 08:07:09;;;;;;;14.73;14.03;;;19.90;89.80;;;;;;5068778;28;20462;-70
2022/09/15 08:09:39;;;;;;;12.57;11.77;;;19.90;89.50;;;;;;5067916;28;20478;-71
2022/09/15 08:12:07;;;;;;;12.80;12.10;;;19.90;89.80;;;;;;5068123;28;20813;-75
2022/09/15 08:14:34;;;;;;;12.77;12.00;;;19.90;89.70;;;;;;5067945;28;20466;-73
2022/09/15 08:17:03;;;;;;;19.50;18.30;;;19.80;89.70;;;;;;5071647;28;20473;-72
2022/09/15 08:19:31;;;;;;;12.30;11.70;;;19.80;90.10;;;;;;5066515;28;20514;-76
2022/09/15 08:21:58;;;;;;;16.20;15.50;;;19.90;89.70;;;;;;5062520;28;20850;-74
2022/09/15 08:24:25;;;;;;;15.70;14.90;;;19.80;89.40;;;;;;5062693;28;20815;-73
2022/09/15 08:26:54;;;;;;;12.60;12.00;;;19.80;89.90;;;;;;5069159;28;20987;-73
2022/09/15 08:29:21;;;;;;;22.53;21.43;;;19.90;89.60;;;;;;5065663;28;20468;-76
2022/09/15 08:31:48;;;;;;;18.63;17.50;;;19.90;89.60;;;;;;5066116;28;20461;-72
2022/09/15 08:34:16;;;;;;;12.90;12.33;;;19.80;89.80;;;;;;5070293;28;20472;-73
2022/09/15 08:36:43;;;;;;;23.70;22.47;;;20.00;89.40;;;;;;5077465;28;20827;-73
2022/09/15 08:39:11;;;;;;;13.47;12.67;;;20.00;89.40;;;;;;5064994;28;20990;-73
2022/09/15 08:41:41;;;;;;;25.53;24.33;;;20.10;89.60;;;;;;5064286;28;20492;-72
2022/09/15 08:44:23;;;;;;;14.30;13.50;;;20.20;89.40;;;;;;5073184;28;20462;-74
2022/09/15 08:46:55;;;;;;;18.23;16.87;;;20.30;88.90;;;;;;5061211;28;20537;-73
2022/09/15 08:49:26;;;;;;;14.03;13.33;;;20.50;88.60;;;;;;5069163;28;20450;-72
2022/09/15 08:51:55;;;;;;;22.20;21.20;;;20.60;88.00;;;;;;5072801;28;20822;-74
2022/09/15 08:54:25;;;;;;;13.50;12.80;;;20.70;87.10;;;;;;5067819;28;20470;-72
2022/09/15 08:56:53;;;;;;;14.20;13.50;;;20.80;86.40;;;;;;5061149;28;20944;-72
2022/09/15 08:59:21;;;;;;;32.47;31.13;;;20.90;86.20;;;;;;5068180;28;20462;-73
2022/09/15 09:02:24;;;;;;;29.30;28.20;;;21.10;85.60;;;;;;5063861;28;21017;-76
2022/09/15 09:05:00;;;;;;;18.30;17.50;;;21.30;85.00;;;;;;5066237;28;20471;-73
2022/09/15 09:07:45;;;;;;;17.77;16.87;;;21.50;84.30;;;;;;5067250;28;20474;-76
2022/09/15 09:10:19;;;;;;;33.67;32.00;;;21.70;83.80;;;;;;5066872;28;20459;-73
2022/09/15 09:13:00;;;;;;;19.30;18.20;;;21.80;83.30;;;;;;5073821;28;20470;-75
2022/09/15 09:15:39;;;;;;;34.53;33.10;;;21.80;83.40;;;;;;5066947;28;20462;-73
2022/09/15 09:18:34;;;;;;;20.40;19.43;;;22.00;82.50;;;;;;5060103;28;20448;-73
2022/09/15 09:21:10;;;;;;;23.20;21.43;;;22.10;83.00;;;;;;5065009;28;20836;-73
2022/09/15 09:23:45;;;;;;;19.77;18.97;;;22.10;83.20;;;;;;5062446;28;20986;-73
2022/09/15 09:26:13;;;;;;;22.27;21.23;;;22.20;82.70;;;;;;5065535;28;20463;-74
2022/09/15 09:28:47;;;;;;;29.03;27.60;;;22.30;82.00;;;;;;5063307;28;20822;-73
2022/09/15 09:31:19;;;;;;;21.30;20.40;;;22.30;82.70;;;;;;5061439;28;20981;-73
2022/09/15 09:33:52;;;;;;;24.93;23.53;;;22.40;82.40;;;;;;5061109;28;20474;-76
2022/09/15 09:36:20;;;;;;;22.97;22.07;;;22.30;82.40;;;;;;5068615;28;20464;-73
2022/09/15 09:38:48;;;;;;;21.97;20.67;;;22.20;82.20;;;;;;5069036;28;20535;-75
2022/09/15 09:41:17;;;;;;;30.27;28.83;;;22.20;82.60;;;;;;5067316;28;20482;-75
2022/09/15 09:43:47;;;;;;;22.97;21.60;;;22.10;82.10;;;;;;5066110;28;20481;-75
2022/09/15 09:46:16;;;;;;;21.40;20.40;;;21.90;82.50;;;;;;5066274;28;20482;-74
2022/09/15 09:48:48;;;;;;;34.73;33.23;;;21.70;83.10;;;;;;5067992;28;20962;-74
2022/09/15 09:51:31;;;;;;;31.27;29.80;;;21.60;83.80;;;;;;5066297;28;20448;-74
2022/09/15 09:54:05;;;;;;;21.10;20.30;;;21.40;84.40;;;;;;5063120;28;20835;-74
2022/09/15 09:56:32;;;;;;;26.40;25.30;;;21.20;84.40;;;;;;5071187;28;20473;-76
2022/09/15 09:59:01;;;;;;;18.23;17.43;;;20.70;85.70;;;;;;5068714;28;20469;-75
2022/09/15 10:01:30;;;;;;;20.27;19.30;;;20.40;86.70;;;;;;5066552;28;20482;-75
2022/09/15 10:04:12;;;;;;;29.97;28.77;;;19.80;86.80;;;;;;5064082;28;20478;-73
2022/09/15 10:06:40;;;;;;;15.60;15.00;;;19.30;89.40;;;;;;5067741;28;20464;-73
2022/09/15 10:09:10;;;;;;;14.50;13.90;;;19.00;90.50;;;;;;5065244;28;20957;-73
2022/09/15 10:11:41;;;;;;;12.83;12.33;;;18.90;91.00;;;;;;5066593;28;20461;-75
2022/09/15 10:14:18;;;;;;;19.83;19.07;;;18.50;91.80;;;;;;5067050;28;20466;-74
2022/09/15 10:16:59;;;;;;;14.50;13.97;;;18.00;94.10;;;;;;5064454;28;20454;-74
2022/09/15 10:19:28;;;;;;;19.37;18.57;;;17.80;94.50;;;;;;5065971;28;20458;-74
2022/09/15 10:21:55;;;;;;;10.40;9.70;;;17.90;94.80;;;;;;5064970;28;20777;-75
2022/09/15 10:24:33;;;;;;;9.47;9.10;;;17.80;95.00;;;;;;5059459;28;20468;-75
2022/09/15 10:27:08;;;;;;;9.03;8.57;;;17.80;94.80;;;;;;5068228;28;20450;-75
2022/09/15 10:29:39;;;;;;;8.17;7.87;;;17.80;94.50;;;;;;5059039;28;20941;-74
2022/09/15 10:32:24;;;;;;;8.80;8.47;;;17.80;93.80;;;;;;5063745;28;20470;-75
2022/09/15 10:35:00;;;;;;;10.30;9.90;;;17.80;94.60;;;;;;5065415;28;20468;-75
2022/09/15 10:37:30;;;;;;;10.00;9.60;;;17.70;93.80;;;;;;5066577;28;20512;-75
2022/09/15 10:40:00;;;;;;;15.70;15.10;;;17.30;94.80;;;;;;5060411;28;20592;-74
2022/09/15 10:42:50;;;;;;;9.40;9.00;;;17.20;95.20;;;;;;5069068;28;20569;-75
2022/09/15 10:45:27;;;;;;;8.90;8.50;;;17.00;96.30;;;;;;5061835;28;20457;-74
2022/09/15 10:48:24;;;;;;;11.33;10.83;;;17.00;96.90;;;;;;5065846;28;20462;-75
2022/09/15 10:50:58;;;;;;;11.23;10.80;;;16.90;96.90;;;;;;5060662;28;20458;-76
2022/09/15 10:53:46;;;;;;;14.70;14.00;;;17.20;96.80;;;;;;5063441;28;20466;-77
2022/09/15 10:56:24;;;;;;;12.13;11.60;;;17.20;95.50;;;;;;5057995;28;20461;-74
2022/09/15 10:59:16;;;;;;;9.03;8.53;;;17.20;94.40;;;;;;5061271;28;20454;-74
2022/09/15 11:02:04;;;;;;;19.37;18.60;;;17.20;94.30;;;;;;5066695;28;21001;-75
2022/09/15 11:04:47;;;;;;;11.70;11.00;;;17.00;93.10;;;;;;5060515;28;20454;-73
2022/09/15 11:07:27;;;;;;;14.33;13.70;;;16.90;92.20;;;;;;5070633;28;20462;-74
2022/09/15 11:10:00;;;;;;;20.30;19.50;;;16.60;92.30;;;;;;5067532;28;20458;-73
2022/09/15 11:12:41;;;;;;;10.97;10.37;;;16.60;92.80;;;;;;5064571;28;20836;-73
2022/09/15 11:15:26;;;;;;;13.73;12.80;;;16.60;93.20;;;;;;5064710;28;20969;-75
2022/09/15 11:18:07;;;;;;;14.80;13.80;;;16.80;92.50;;;;;;5071400;28;20453;-73
2022/09/15 11:20:59;;;;;;;11.20;10.70;;;16.70;90.80;;;;;;5061903;28;20456;-71
2022/09/15 11:23:32;;;;;;;16.20;15.40;;;16.80;90.50;;;;;;5044841;28;20471;-72
2022/09/15 11:26:04;;;;;;;24.33;23.03;;;16.90;90.30;;;;;;5066200;28;20454;-72
2022/09/15 11:28:37;;;;;;;14.63;13.80;;;16.90;90.00;;;;;;5065093;28;21119;-72
2022/09/15 11:31:13;;;;;;;26.53;25.23;;;16.90;89.80;;;;;;5069943;28;20468;-72
2022/09/15 11:33:44;;;;;;;15.80;14.93;;;16.90;89.50;;;;;;5073010;28;20993;-76
2022/09/15 11:36:15;;;;;;;15.50;14.80;;;17.00;89.20;;;;;;5065670;28;20454;-72
2022/09/15 11:38:47;;;;;;;17.53;16.73;;;17.10;89.30;;;;;;5067963;28;20545;-72
2022/09/15 11:41:28;;;;;;;21.73;20.63;;;17.00;88.70;;;;;;5068047;28;20461;-73
2022/09/15 11:44:05;;;;;;;17.03;15.97;;;16.90;89.20;;;;;;5064558;28;21021;-71
2022/09/15 11:46:57;;;;;;;17.13;16.13;;;17.00;89.40;;;;;;5064432;28;20527;-72
2022/09/15 11:49:29;;;;;;;16.90;16.07;;;16.90;88.20;;;;;;5062922;28;20485;-72
2022/09/15 11:52:05;;;;;;;15.70;14.80;;;16.90;88.60;;;;;;5064983;28;21109;-72
2022/09/15 11:54:39;;;;;;;24.43;23.20;;;17.10;88.70;;;;;;5055218;28;20466;-72
2022/09/15 11:57:14;;;;;;;17.33;16.47;;;17.10;87.30;;;;;;5053875;28;20465;-70
2022/09/15 11:59:48;;;;;;;16.80;15.67;;;17.20;86.80;;;;;;5058651;28;20977;-71
2022/09/15 12:02:23;;;;;;;25.27;23.97;;;17.00;88.10;;;;;;5055609;28;20481;-70
2022/09/15 12:05:03;;;;;;;19.60;18.60;;;17.00;88.10;;;;;;5057349;28;20467;-70
2022/09/15 12:07:35;;;;;;;28.63;27.33;;;16.90;87.40;;;;;;5057480;28;20820;-73
2022/09/15 12:10:13;;;;;;;16.97;15.87;;;16.80;88.10;;;;;;5059578;28;20974;-72
2022/09/15 12:12:41;;;;;;;22.67;21.17;;;16.80;88.20;;;;;;5057461;28;20478;-72
2022/09/15 12:15:15;;;;;;;16.87;15.97;;;16.80;88.10;;;;;;5055269;28;20553;-72
2022/09/15 12:17:47;;;;;;;22.40;21.23;;;16.80;88.20;;;;;;5073276;28;20469;-74
2022/09/15 12:20:20;;;;;;;19.47;18.47;;;16.60;88.10;;;;;;5068176;28;20462;-74
2022/09/15 12:22:55;;;;;;;32.13;30.57;;;16.80;87.70;;;;;;5066962;28;20493;-74
2022/09/15 12:25:26;;;;;;;22.20;20.90;;;16.90;87.50;;;;;;5064773;28;20930;-74
2022/09/15 12:28:27;;;;;;;31.17;29.57;;;16.90;87.10;;;;;;5083509;28;20460;-73
2022/09/15 12:31:13;;;;;;;34.10;32.50;;;17.10;87.00;;;;;;5066233;28;20501;-74
2022/09/15 12:33:53;;;;;;;24.50;23.30;;;17.30;87.10;;;;;;5070260;28;20922;-73
2022/09/15 12:36:41;;;;;;;37.70;35.80;;;17.70;85.20;;;;;;5064218;28;20865;-74
2022/09/15 12:39:27;;;;;;;21.23;20.27;;;18.00;84.30;;;;;;5069133;28;20451;-74
2022/09/15 12:41:57;;;;;;;36.60;34.73;;;18.10;83.90;;;;;;5070354;28;20462;-73
2022/09/15 12:44:31;;;;;;;19.83;18.93;;;18.50;82.80;;;;;;5068524;28;20450;-73
2022/09/15 12:47:00;;;;;;;31.30;30.00;;;18.30;83.00;;;;;;5069945;28;20465;-76
2022/09/15 12:49:32;;;;;;;24.70;23.50;;;18.00;84.10;;;;;;5067608;28;20458;-73